Corinthiakos — A8UL2 — position and weather

sailwx.info

Track history (hours):
 
Tides and Currents Weather Stations Pressure Air Temp Water Temp Dewpoint Dewpoint Depression Visibility Wind Speed Wind Dir Waves Ship Positions

Corinthiakos

Last reported at 2018-Jan-10 08:34 UTC. Time now 2018-Jan-21 07:09 UTC.
Position N 01°24' E 104°28'.
Warning: this ship's position is 10 days out of date.

Length 262 m; draft 10.9 m.

Type: Ship (hazmat cat C). MMSI: 636014516.

Date/timePositionNaut miles runAvg speedWind from/ knotsBaromVisibWave heightAir tempDewpointWater temp
2018-Jan-10 08:34N 01°24' E 104°28'219.5
2018-Jan-10 08:30N 01°23' E 104°27'1718.9
2018-Jan-10 07:34N 01°16' E 104°11'319.3
2018-Jan-10 07:26N 01°16' E 104°08'819.3
2018-Jan-10 07:00N 01°15' E 103°60'715.0
2018-Jan-10 06:30N 01°13' E 103°53'2 3.3
2018-Jan-10 06:01N 01°15' E 103°52'2 3.3
2018-Jan-10 05:30N 01°16' E 103°50'0 0.1
2018-Jan-10 04:55N 01°16' E 103°50'0 0.0
2018-Jan-10 04:25N 01°16' E 103°50'0 0.0
2018-Jan-10 03:58N 01°16' E 103°50'0 0.0
2018-Jan-10 03:28N 01°16' E 103°50'0 0.0
2018-Jan-10 02:58N 01°16' E 103°50'0 0.0
2018-Jan-10 02:28N 01°16' E 103°50'0 0.0
2018-Jan-10 01:58N 01°16' E 103°50'0 0.0
2018-Jan-10 01:28N 01°16' E 103°50'0 0.0
2018-Jan-10 00:58N 01°16' E 103°50'0 0.0
2018-Jan-10 00:28N 01°16' E 103°50'0 0.0
2018-Jan-10 00:00N 01°16' E 103°50'0 0.0
2018-Jan-09 23:30N 01°16' E 103°50'0 0.0
2018-Jan-09 23:00N 01°16' E 103°50'0 0.0
2018-Jan-09 22:30N 01°16' E 103°50'0 0.0
2018-Jan-09 22:00N 01°16' E 103°50'0 0.0
2018-Jan-09 21:30N 01°16' E 103°50'0 0.0
2018-Jan-09 21:00N 01°16' E 103°50'0 0.0
2018-Jan-09 20:30N 01°16' E 103°50'0 0.0
2018-Jan-09 20:00N 01°16' E 103°50'0 0.0
2018-Jan-09 19:30N 01°16' E 103°50'0 0.0
2018-Jan-09 19:00N 01°16' E 103°50'0 0.0
2018-Jan-09 18:30N 01°16' E 103°50'0 0.0
2018-Jan-09 18:00N 01°16' E 103°50'1 1.4
2018-Jan-09 17:30N 01°15' E 103°51'3 5.3
2018-Jan-09 17:00N 01°14' E 103°53'1 2.3
2018-Jan-09 16:30N 01°12' E 103°53'3 5.2
2018-Jan-09 15:59N 01°11' E 103°51'2 5.0
2018-Jan-09 15:30N 01°10' E 103°48'3 4.9
2018-Jan-09 14:59N 01°08' E 103°46'2 3.5
2018-Jan-09 14:30N 01°07' E 103°45'712.2
2018-Jan-09 13:58N 01°03' E 103°40'511.3
2018-Jan-09 13:30N 01°05' E 103°35'612.2
2018-Jan-09 12:59N 01°08' E 103°30'613.0
2018-Jan-09 12:30N 01°11' E 103°24'713.1
2018-Jan-09 11:58N 01°16' E 103°19'  
Track history (hours):
 
Tides and Currents Weather Stations Pressure Air Temp Water Temp Dewpoint Dewpoint Depression Visibility Wind Speed Wind Dir Waves Ship Positions

Corinthiakos

Last reported at 2018-Jan-10 08:34 UTC. Time now 2018-Jan-21 07:09 UTC.
Position N 01°24' E 104°28'.
Warning: this ship's position is 10 days out of date.

Length 262 m; draft 10.9 m.

Type: Ship (hazmat cat C). MMSI: 636014516.

Date/timePositionNaut miles runAvg speedWind from/ knotsBaromVisibWave heightAir tempDewpointWater temp
2018-Jan-10 08:34N 01°24' E 104°28'219.5
2018-Jan-10 08:30N 01°23' E 104°27'1718.9
2018-Jan-10 07:34N 01°16' E 104°11'319.3
2018-Jan-10 07:26N 01°16' E 104°08'819.3
2018-Jan-10 07:00N 01°15' E 103°60'715.0
2018-Jan-10 06:30N 01°13' E 103°53'2 3.3
2018-Jan-10 06:01N 01°15' E 103°52'2 3.3
2018-Jan-10 05:30N 01°16' E 103°50'0 0.1
2018-Jan-10 04:55N 01°16' E 103°50'0 0.0
2018-Jan-10 04:25N 01°16' E 103°50'0 0.0
2018-Jan-10 03:58N 01°16' E 103°50'0 0.0
2018-Jan-10 03:28N 01°16' E 103°50'0 0.0
2018-Jan-10 02:58N 01°16' E 103°50'0 0.0
2018-Jan-10 02:28N 01°16' E 103°50'0 0.0
2018-Jan-10 01:58N 01°16' E 103°50'0 0.0
2018-Jan-10 01:28N 01°16' E 103°50'0 0.0
2018-Jan-10 00:58N 01°16' E 103°50'0 0.0
2018-Jan-10 00:28N 01°16' E 103°50'0 0.0
2018-Jan-10 00:00N 01°16' E 103°50'0 0.0
2018-Jan-09 23:30N 01°16' E 103°50'0 0.0
2018-Jan-09 23:00N 01°16' E 103°50'0 0.0
2018-Jan-09 22:30N 01°16' E 103°50'0 0.0
2018-Jan-09 22:00N 01°16' E 103°50'0 0.0
2018-Jan-09 21:30N 01°16' E 103°50'0 0.0
2018-Jan-09 21:00N 01°16' E 103°50'0 0.0
2018-Jan-09 20:30N 01°16' E 103°50'0 0.0
2018-Jan-09 20:00N 01°16' E 103°50'0 0.0
2018-Jan-09 19:30N 01°16' E 103°50'0 0.0
2018-Jan-09 19:00N 01°16' E 103°50'0 0.0
2018-Jan-09 18:30N 01°16' E 103°50'0 0.0
2018-Jan-09 18:00N 01°16' E 103°50'1 1.4
2018-Jan-09 17:30N 01°15' E 103°51'3 5.3
2018-Jan-09 17:00N 01°14' E 103°53'1 2.3
2018-Jan-09 16:30N 01°12' E 103°53'3 5.2
2018-Jan-09 15:59N 01°11' E 103°51'2 5.0
2018-Jan-09 15:30N 01°10' E 103°48'3 4.9
2018-Jan-09 14:59N 01°08' E 103°46'2 3.5
2018-Jan-09 14:30N 01°07' E 103°45'712.2
2018-Jan-09 13:58N 01°03' E 103°40'511.3
2018-Jan-09 13:30N 01°05' E 103°35'612.2
2018-Jan-09 12:59N 01°08' E 103°30'613.0
2018-Jan-09 12:30N 01°11' E 103°24'713.1
2018-Jan-09 11:58N 01°16' E 103°19'  

Dump ship's entire track history